createdAt,value
2023-01-27T00:13:12.700Z,0
2023-01-27T12:12:03.320Z,58.47885
2023-01-27T12:17:00.515Z,63.97472
2023-01-27T12:22:28.803Z,70.7043
2023-01-27T12:27:24.865Z,72.13876
2023-01-27T12:32:40.844Z,75.54398
2023-01-27T12:37:38.305Z,76.98308
2023-01-27T12:42:47.678Z,78.93109
2023-01-27T12:47:46.325Z,79.80208
2023-01-27T12:52:50.271Z,81.20389
2023-01-27T12:57:48.160Z,81.02727
2023-01-27T13:02:41.721Z,63.01814
2023-01-27T13:07:40.892Z,63.39191
2023-01-27T13:12:33.386Z,63.89536
2023-01-27T13:17:33.140Z,63.5521
2023-01-27T13:22:26.565Z,63.59024
2023-01-27T13:27:23.696Z,63.42243
2023-01-27T13:32:39.932Z,63.39954
2023-01-27T13:37:36.057Z,63.55973
2023-01-27T13:42:29.099Z,63.54448
2023-01-27T13:47:26.873Z,63.53685
2023-01-27T13:52:26.624Z,63.78857
2023-01-27T13:57:42.341Z,64.00978
2023-01-27T14:02:32.435Z,63.23173
2023-01-27T14:07:31.916Z,63.61313
2023-01-27T14:12:27.060Z,63.68941
2023-01-27T14:17:20.648Z,64.35304
2023-01-27T14:22:14.065Z,64.36067
2023-01-27T14:27:22.187Z,64.6124
2023-01-27T14:32:24.598Z,64.49798
2023-01-27T14:37:16.719Z,64.58952
2023-01-27T14:42:16.802Z,64.4217
2023-01-27T14:47:09.411Z,64.71918
2023-01-27T14:52:03.266Z,64.6963
2023-01-27T14:57:07.140Z,65.05482
2023-01-27T15:02:21.359Z,65.15398
2023-01-27T15:07:16.548Z,65.08533
2023-01-27T15:12:11.962Z,65.64217
2023-01-27T15:17:09.491Z,65.3218
2023-01-27T15:22:04.574Z,65.57352
2023-01-27T15:26:56.408Z,65.49725
2023-01-27T15:31:55.852Z,65.17686
2023-01-27T15:36:47.737Z,65.25315
2023-01-27T15:41:47.623Z,65.58115
2023-01-27T15:46:38.516Z,65.39808
2023-01-27T15:51:39.357Z,65.49725
2023-01-27T15:56:32.261Z,65.44385
2023-01-27T16:01:24.515Z,65.63454
2023-01-27T16:06:23.790Z,65.82525
2023-01-27T16:11:14.906Z,66.10748
2023-01-27T16:16:14.169Z,65.73371
2023-01-27T16:21:30.423Z,65.86339
2023-01-27T16:26:20.709Z,66.15325
2023-01-27T16:31:14.978Z,66.77875
2023-01-27T16:36:06.601Z,66.79401
2023-01-27T16:41:30.744Z,66.30581
2023-01-27T16:46:44.276Z,65.88627
2023-01-27T16:51:39.198Z,65.95493
2023-01-27T16:56:31.464Z,65.93967
2023-01-27T17:02:25.572Z,66.00069
2023-01-27T17:07:12.953Z,65.50488
2023-01-27T17:12:12.145Z,65.87865
2023-01-27T17:17:03.963Z,66.23716
2023-01-27T17:22:02.239Z,66.22953
2023-01-27T17:26:54.521Z,66.41261
2023-01-27T17:31:52.865Z,66.31344
2023-01-27T17:36:48.839Z,66.06934
2023-01-27T17:41:48.076Z,66.33633
2023-01-27T17:46:41.437Z,66.56516
2023-01-27T17:52:04.976Z,66.77112
2023-01-27T17:56:53.968Z,66.26004
2023-01-27T18:01:53.855Z,66.59567
2023-01-27T18:06:46.891Z,67.04573
2023-01-27T18:11:39.754Z,67.60257
2023-01-27T18:16:39.776Z,67.52629
2023-01-27T18:21:56.317Z,67.61783
2023-01-27T18:26:49.599Z,66.81689
2023-01-27T18:31:42.432Z,66.77112
2023-01-27T18:36:45.968Z,66.54228
2023-01-27T18:41:41.508Z,66.29819
2023-01-27T18:46:33.985Z,66.87029
2023-01-27T18:51:36.378Z,67.46527
2023-01-27T18:57:23.935Z,67.45764
2023-01-27T19:02:40.159Z,67.28983
2023-01-27T19:07:29.535Z,67.08387
2023-01-27T19:12:28.371Z,67.30508
2023-01-27T19:17:45.607Z,67.45001
2023-01-27T19:22:40.677Z,66.51176
2023-01-27T19:27:34.997Z,66.9313
2023-01-27T19:32:35.336Z,67.06098
2023-01-27T19:37:27.343Z,66.62619
2023-01-27T19:42:34.890Z,67.09912
2023-01-27T19:47:37.941Z,67.70174
2023-01-27T19:52:34.249Z,67.86955
2023-01-27T19:57:26.142Z,67.99923
2023-01-27T20:02:50.822Z,67.64071
2023-01-27T20:07:42.840Z,67.65597
2023-01-27T20:12:58.500Z,68.14416
2023-01-27T20:18:18.440Z,67.8009
2023-01-27T20:23:10.649Z,67.91532
2023-01-27T20:28:06.873Z,67.93057
2023-01-27T20:32:59.379Z,68.09839
2023-01-27T20:38:53.909Z,68.41877
2023-01-27T20:43:41.023Z,67.69411
2023-01-27T20:48:40.949Z,68.13654
2023-01-27T20:53:33.225Z,68.21281
2023-01-27T20:58:26.741Z,68.07551
2023-01-27T21:03:48.717Z,67.78564
2023-01-27T21:09:02.112Z,67.9916
2023-01-27T21:13:57.521Z,68.21281
2023-01-27T21:18:49.379Z,68.36537
2023-01-27T21:23:47.416Z,68.57896
2023-01-27T21:28:39.721Z,68.54082
2023-01-27T21:33:37.595Z,68.87645
2023-01-27T21:38:28.842Z,68.88408
2023-01-27T21:43:28.503Z,68.96799
2023-01-27T21:48:45.653Z,69.09766
2023-01-27T21:53:40.274Z,68.89933
2023-01-27T21:58:32.578Z,69.09766
2023-01-27T22:03:44.591Z,69.17394
2023-01-27T22:08:34.122Z,69.26547
2023-01-27T22:13:32.298Z,69.52483
2023-01-27T22:18:26.719Z,69.47906
2023-01-27T22:23:19.857Z,69.61636
2023-01-27T22:28:12.200Z,69.68501
2023-01-27T22:33:12.119Z,69.66213
2023-01-27T22:38:02.996Z,69.7079
2023-01-27T22:43:02.458Z,69.46381
2023-01-27T22:47:54.413Z,69.6011
2023-01-27T22:53:17.077Z,69.73841
2023-01-27T22:58:06.730Z,69.73841
2023-01-27T23:03:05.903Z,69.81469
2023-01-27T23:08:06.088Z,70.13507
2023-01-27T23:15:53.116Z,70.26475
2023-01-27T23:22:38.216Z,70.91312
2023-01-27T23:27:50.532Z,72.08784
2023-01-27T23:33:02.843Z,71.72932
2023-01-27T23:38:03.255Z,71.8056
2023-01-27T23:42:54.896Z,72.05733
2023-01-27T23:47:54.002Z,71.9429
2023-01-27T23:52:46.127Z,71.56913
2023-01-27T23:57:44.923Z,71.92002
